logo tempoitalia

Diretta Meteo Concord Buchanan Fld, Stati Uniti (USA)domenica 30 agosto ore 22:53

Mappa
Sereno 16 °C Sereno 24 Ore: T.min 14 T.max 29
Ponente Sud Km/h 22.2 Punto di rugiada: 11 °C Umidità: 72% Visibilità: 10 Km
Il sole sorge alle: 06:36 Il sole tramonta alle: 19:40
30 Agosto 2026 22:53 tempo osservato: Sereno Sereno 16 72 1011 vento: Nord S 22.2
30 Agosto 2026 21:53 tempo osservato: Sereno Sereno 18 63 1011 vento: Nord S 20.3
30 Agosto 2026 20:53 tempo osservato: Sereno Sereno 21 49 1011 vento: Nord S 9.3
30 Agosto 2026 19:53 tempo osservato: Sereno Sereno 22 49 1010 vento: Nord O/SO 14.8
30 Agosto 2026 18:53 tempo osservato: Sereno Sereno 24 38 1010 vento: Nord O 18.5
30 Agosto 2026 17:53 tempo osservato: Sereno Sereno 27 26 1010 vento: Nord SO 18.5
30 Agosto 2026 17:36 tempo osservato: Sereno Sereno 28 26 1010 vento: Nord O/SO 18.5
30 Agosto 2026 16:53 tempo osservato: Sereno Sereno 29 25 1010 vento: Nord S 16.7
30 Agosto 2026 15:53 tempo osservato: Sereno Sereno 29 28 1010 vento: Nord S/SO 14.8
30 Agosto 2026 14:53 tempo osservato: Sereno Sereno 28 37 1011 vento: Nord N/NO 16.7
30 Agosto 2026 13:53 tempo osservato: Sereno Sereno 27 36 1012 vento: Nord S/SO 7.4
30 Agosto 2026 12:53 tempo osservato: Sereno Sereno 25 41 1013 vento: Nord S 14.8
30 Agosto 2026 11:53 tempo osservato: Sereno Sereno 23 46 1013 vento: Nord S/SO 13
30 Agosto 2026 10:53 tempo osservato: Sereno Sereno 21 52 1014 vento: Nord S 14.8
30 Agosto 2026 09:53 tempo osservato: Sereno Sereno 19 63 1014 vento: Nord S/SO 22.2
30 Agosto 2026 08:53 tempo osservato: Sereno Sereno 17 72 1014 vento: Nord S/SO 27.8
30 Agosto 2026 07:53 tempo osservato: Sereno Sereno 16 77 1014 vento: Nord S 24
30 Agosto 2026 06:53 tempo osservato: Sereno Sereno 14 87 1013 vento: Nord S 25.9
30 Agosto 2026 05:53 tempo osservato: Sereno Sereno 15 82 1012 vento: Nord S 27.8
30 Agosto 2026 04:53 tempo osservato: Sereno Sereno 15 82 1012 vento: Nord S 25.9
30 Agosto 2026 03:53 tempo osservato: Sereno Sereno 15 82 1012 vento: Nord S 25.9
30 Agosto 2026 02:53 tempo osservato: Sereno Sereno 16 77 1012 vento: Nord S 24
30 Agosto 2026 01:53 tempo osservato: Sereno Sereno 16 77 1012 vento: Nord S 24
30 Agosto 2026 00:53 tempo osservato: Sereno Sereno 16 77 1012 vento: Nord S 25.9
29 Agosto 2026 23:53 tempo osservato: Sereno Sereno 17 72 1012 vento: Nord S 29.6